sensor_id;sensor_type;location;lat;lon;timestamp;P1;durP1;ratioP1;P2;durP2;ratioP2
59416;SDS011;45222;52.458;20.914;2023-05-07T00:01:45;7.60;;;3.60;;
59416;SDS011;45222;52.458;20.914;2023-05-07T00:05:30;8.00;;;3.60;;
59416;SDS011;45222;52.458;20.914;2023-05-07T00:09:15;7.30;;;3.70;;
59416;SDS011;45222;52.458;20.914;2023-05-07T00:13:00;9.70;;;3.90;;
59416;SDS011;45222;52.458;20.914;2023-05-07T00:16:45;9.10;;;4.20;;
59416;SDS011;45222;52.458;20.914;2023-05-07T00:20:30;7.60;;;3.90;;
59416;SDS011;45222;52.458;20.914;2023-05-07T00:24:15;6.60;;;3.70;;
59416;SDS011;45222;52.458;20.914;2023-05-07T00:28:00;7.50;;;3.70;;
59416;SDS011;45222;52.458;20.914;2023-05-07T00:31:47;7.60;;;3.70;;
59416;SDS011;45222;52.458;20.914;2023-05-07T00:35:34;8.00;;;4.10;;
59416;SDS011;45222;52.458;20.914;2023-05-07T00:39:19;6.90;;;3.70;;
59416;SDS011;45222;52.458;20.914;2023-05-07T00:43:04;7.80;;;4.10;;
59416;SDS011;45222;52.458;20.914;2023-05-07T00:46:49;6.50;;;3.70;;
59416;SDS011;45222;52.458;20.914;2023-05-07T00:50:34;7.60;;;3.50;;
59416;SDS011;45222;52.458;20.914;2023-05-07T00:54:19;6.50;;;3.20;;
59416;SDS011;45222;52.458;20.914;2023-05-07T00:58:05;6.50;;;3.60;;
59416;SDS011;45222;52.458;20.914;2023-05-07T01:01:50;6.90;;;3.80;;
59416;SDS011;45222;52.458;20.914;2023-05-07T01:05:36;7.20;;;3.60;;
59416;SDS011;45222;52.458;20.914;2023-05-07T01:09:22;7.10;;;4.00;;
59416;SDS011;45222;52.458;20.914;2023-05-07T01:13:07;7.30;;;3.40;;
59416;SDS011;45222;52.458;20.914;2023-05-07T01:16:53;7.00;;;3.40;;
59416;SDS011;45222;52.458;20.914;2023-05-07T01:20:39;6.90;;;3.50;;
59416;SDS011;45222;52.458;20.914;2023-05-07T01:24:24;6.90;;;3.20;;
59416;SDS011;45222;52.458;20.914;2023-05-07T01:28:10;5.70;;;3.30;;
59416;SDS011;45222;52.458;20.914;2023-05-07T01:31:55;6.30;;;3.30;;
59416;SDS011;45222;52.458;20.914;2023-05-07T01:35:43;6.80;;;3.40;;
59416;SDS011;45222;52.458;20.914;2023-05-07T01:39:31;6.00;;;3.00;;
59416;SDS011;45222;52.458;20.914;2023-05-07T01:43:17;5.10;;;2.70;;
59416;SDS011;45222;52.458;20.914;2023-05-07T01:47:02;6.70;;;3.10;;
59416;SDS011;45222;52.458;20.914;2023-05-07T01:50:48;5.80;;;3.00;;
59416;SDS011;45222;52.458;20.914;2023-05-07T01:54:34;6.50;;;2.70;;
59416;SDS011;45222;52.458;20.914;2023-05-07T01:58:20;5.70;;;2.50;;
59416;SDS011;45222;52.458;20.914;2023-05-07T02:02:05;5.80;;;2.10;;
59416;SDS011;45222;52.458;20.914;2023-05-07T02:05:50;4.90;;;2.20;;
59416;SDS011;45222;52.458;20.914;2023-05-07T02:09:35;5.70;;;2.50;;
59416;SDS011;45222;52.458;20.914;2023-05-07T02:13:20;4.00;;;2.00;;
59416;SDS011;45222;52.458;20.914;2023-05-07T02:17:07;4.50;;;2.00;;
59416;SDS011;45222;52.458;20.914;2023-05-07T02:20:53;5.80;;;2.30;;
59416;SDS011;45222;52.458;20.914;2023-05-07T02:24:38;4.30;;;2.20;;
59416;SDS011;45222;52.458;20.914;2023-05-07T02:28:23;3.40;;;2.00;;
59416;SDS011;45222;52.458;20.914;2023-05-07T02:32:08;4.10;;;2.00;;
59416;SDS011;45222;52.458;20.914;2023-05-07T02:35:53;4.70;;;1.80;;
59416;SDS011;45222;52.458;20.914;2023-05-07T02:39:38;4.50;;;2.00;;
59416;SDS011;45222;52.458;20.914;2023-05-07T02:43:23;4.00;;;1.70;;
59416;SDS011;45222;52.458;20.914;2023-05-07T02:47:08;4.50;;;2.00;;
59416;SDS011;45222;52.458;20.914;2023-05-07T02:50:56;5.10;;;2.20;;
59416;SDS011;45222;52.458;20.914;2023-05-07T02:54:41;4.20;;;2.00;;
59416;SDS011;45222;52.458;20.914;2023-05-07T02:58:26;3.20;;;1.70;;
59416;SDS011;45222;52.458;20.914;2023-05-07T03:02:11;3.00;;;1.70;;
59416;SDS011;45222;52.458;20.914;2023-05-07T03:05:57;4.50;;;1.90;;
59416;SDS011;45222;52.458;20.914;2023-05-07T03:09:42;4.30;;;2.40;;
59416;SDS011;45222;52.458;20.914;2023-05-07T03:13:27;4.30;;;2.00;;
59416;SDS011;45222;52.458;20.914;2023-05-07T03:17:12;4.50;;;2.00;;
59416;SDS011;45222;52.458;20.914;2023-05-07T03:20:57;4.10;;;2.00;;
59416;SDS011;45222;52.458;20.914;2023-05-07T03:24:42;4.50;;;2.30;;
59416;SDS011;45222;52.458;20.914;2023-05-07T03:28:27;6.90;;;2.70;;
59416;SDS011;45222;52.458;20.914;2023-05-07T03:32:12;4.00;;;2.10;;
59416;SDS011;45222;52.458;20.914;2023-05-07T03:35:57;4.20;;;2.10;;
59416;SDS011;45222;52.458;20.914;2023-05-07T03:39:42;4.40;;;2.10;;
59416;SDS011;45222;52.458;20.914;2023-05-07T03:43:28;5.80;;;2.20;;
59416;SDS011;45222;52.458;20.914;2023-05-07T03:47:13;4.30;;;2.20;;
59416;SDS011;45222;52.458;20.914;2023-05-07T03:50:58;4.80;;;2.10;;
59416;SDS011;45222;52.458;20.914;2023-05-07T03:54:43;5.00;;;2.00;;
59416;SDS011;45222;52.458;20.914;2023-05-07T03:58:28;5.60;;;2.20;;
59416;SDS011;45222;52.458;20.914;2023-05-07T04:02:13;3.90;;;2.20;;
59416;SDS011;45222;52.458;20.914;2023-05-07T04:05:58;4.40;;;2.50;;
59416;SDS011;45222;52.458;20.914;2023-05-07T04:09:43;4.30;;;2.20;;
59416;SDS011;45222;52.458;20.914;2023-05-07T04:13:28;5.60;;;2.40;;
59416;SDS011;45222;52.458;20.914;2023-05-07T04:17:15;4.30;;;2.20;;
59416;SDS011;45222;52.458;20.914;2023-05-07T04:21:00;3.80;;;2.20;;
59416;SDS011;45222;52.458;20.914;2023-05-07T04:24:45;5.20;;;2.50;;
59416;SDS011;45222;52.458;20.914;2023-05-07T04:28:30;5.60;;;2.20;;
59416;SDS011;45222;52.458;20.914;2023-05-07T04:32:15;5.90;;;2.40;;
59416;SDS011;45222;52.458;20.914;2023-05-07T04:36:01;4.70;;;2.20;;
59416;SDS011;45222;52.458;20.914;2023-05-07T04:39:47;4.60;;;2.30;;
59416;SDS011;45222;52.458;20.914;2023-05-07T04:43:32;4.60;;;2.40;;
59416;SDS011;45222;52.458;20.914;2023-05-07T04:47:17;5.60;;;2.40;;
59416;SDS011;45222;52.458;20.914;2023-05-07T04:51:02;4.70;;;2.10;;
59416;SDS011;45222;52.458;20.914;2023-05-07T04:54:48;4.60;;;2.00;;
59416;SDS011;45222;52.458;20.914;2023-05-07T04:58:33;4.00;;;2.10;;
59416;SDS011;45222;52.458;20.914;2023-05-07T05:02:18;5.40;;;2.50;;
59416;SDS011;45222;52.458;20.914;2023-05-07T05:06:03;4.60;;;2.30;;
59416;SDS011;45222;52.458;20.914;2023-05-07T05:09:48;5.20;;;2.50;;
59416;SDS011;45222;52.458;20.914;2023-05-07T05:13:34;5.20;;;2.40;;
59416;SDS011;45222;52.458;20.914;2023-05-07T05:17:19;5.00;;;2.30;;
59416;SDS011;45222;52.458;20.914;2023-05-07T05:21:04;4.30;;;2.20;;
59416;SDS011;45222;52.458;20.914;2023-05-07T05:24:49;3.20;;;1.90;;
59416;SDS011;45222;52.458;20.914;2023-05-07T05:28:34;4.30;;;2.10;;
59416;SDS011;45222;52.458;20.914;2023-05-07T05:32:19;5.30;;;2.30;;
59416;SDS011;45222;52.458;20.914;2023-05-07T05:36:05;4.10;;;2.30;;
59416;SDS011;45222;52.458;20.914;2023-05-07T05:39:52;4.20;;;2.30;;
59416;SDS011;45222;52.458;20.914;2023-05-07T05:43:38;4.90;;;2.30;;
59416;SDS011;45222;52.458;20.914;2023-05-07T05:47:23;4.30;;;2.20;;
59416;SDS011;45222;52.458;20.914;2023-05-07T05:51:08;5.30;;;2.40;;
59416;SDS011;45222;52.458;20.914;2023-05-07T05:54:54;5.00;;;2.30;;
59416;SDS011;45222;52.458;20.914;2023-05-07T05:58:39;4.70;;;2.30;;
59416;SDS011;45222;52.458;20.914;2023-05-07T06:02:24;4.50;;;2.30;;
59416;SDS011;45222;52.458;20.914;2023-05-07T06:06:09;4.50;;;2.40;;
59416;SDS011;45222;52.458;20.914;2023-05-07T06:09:54;5.00;;;2.30;;
59416;SDS011;45222;52.458;20.914;2023-05-07T06:13:39;3.10;;;1.90;;
59416;SDS011;45222;52.458;20.914;2023-05-07T06:17:24;3.80;;;1.90;;
59416;SDS011;45222;52.458;20.914;2023-05-07T06:21:10;3.70;;;2.20;;
59416;SDS011;45222;52.458;20.914;2023-05-07T06:24:55;3.90;;;2.20;;
59416;SDS011;45222;52.458;20.914;2023-05-07T06:28:40;4.90;;;2.20;;
59416;SDS011;45222;52.458;20.914;2023-05-07T06:32:25;5.00;;;1.90;;
59416;SDS011;45222;52.458;20.914;2023-05-07T06:36:10;4.10;;;1.80;;
59416;SDS011;45222;52.458;20.914;2023-05-07T06:39:55;2.60;;;1.80;;
59416;SDS011;45222;52.458;20.914;2023-05-07T06:43:40;4.40;;;2.00;;
59416;SDS011;45222;52.458;20.914;2023-05-07T06:47:25;4.20;;;1.80;;
59416;SDS011;45222;52.458;20.914;2023-05-07T06:51:10;4.10;;;1.90;;
59416;SDS011;45222;52.458;20.914;2023-05-07T06:54:55;5.60;;;2.20;;
59416;SDS011;45222;52.458;20.914;2023-05-07T06:58:40;3.30;;;2.00;;
59416;SDS011;45222;52.458;20.914;2023-05-07T07:02:26;3.60;;;2.30;;
59416;SDS011;45222;52.458;20.914;2023-05-07T07:06:11;4.10;;;2.10;;
59416;SDS011;45222;52.458;20.914;2023-05-07T07:09:56;5.00;;;2.00;;
59416;SDS011;45222;52.458;20.914;2023-05-07T07:13:41;4.30;;;2.20;;
59416;SDS011;45222;52.458;20.914;2023-05-07T07:17:26;5.10;;;2.30;;
59416;SDS011;45222;52.458;20.914;2023-05-07T07:21:11;5.00;;;2.10;;
59416;SDS011;45222;52.458;20.914;2023-05-07T07:24:57;4.00;;;2.00;;
59416;SDS011;45222;52.458;20.914;2023-05-07T07:28:45;3.20;;;1.90;;
59416;SDS011;45222;52.458;20.914;2023-05-07T07:32:30;4.80;;;2.10;;
59416;SDS011;45222;52.458;20.914;2023-05-07T07:36:16;4.00;;;2.00;;
59416;SDS011;45222;52.458;20.914;2023-05-07T07:40:01;9.30;;;2.30;;
59416;SDS011;45222;52.458;20.914;2023-05-07T07:43:47;5.60;;;1.90;;
59416;SDS011;45222;52.458;20.914;2023-05-07T07:47:32;4.90;;;1.90;;
59416;SDS011;45222;52.458;20.914;2023-05-07T07:51:18;5.60;;;2.10;;
59416;SDS011;45222;52.458;20.914;2023-05-07T07:55:04;4.30;;;2.00;;
59416;SDS011;45222;52.458;20.914;2023-05-07T07:58:50;3.90;;;2.00;;
59416;SDS011;45222;52.458;20.914;2023-05-07T08:02:35;5.20;;;2.00;;
59416;SDS011;45222;52.458;20.914;2023-05-07T08:06:20;5.10;;;2.30;;
59416;SDS011;45222;52.458;20.914;2023-05-07T08:10:06;3.40;;;1.90;;
59416;SDS011;45222;52.458;20.914;2023-05-07T08:13:52;5.30;;;2.10;;
59416;SDS011;45222;52.458;20.914;2023-05-07T08:17:37;6.10;;;2.50;;
59416;SDS011;45222;52.458;20.914;2023-05-07T08:21:22;4.60;;;2.10;;
59416;SDS011;45222;52.458;20.914;2023-05-07T08:25:08;5.40;;;2.00;;
59416;SDS011;45222;52.458;20.914;2023-05-07T08:28:53;2.90;;;1.80;;
59416;SDS011;45222;52.458;20.914;2023-05-07T08:32:39;4.20;;;2.20;;
59416;SDS011;45222;52.458;20.914;2023-05-07T08:36:24;5.00;;;2.20;;
59416;SDS011;45222;52.458;20.914;2023-05-07T08:40:09;7.20;;;1.90;;
59416;SDS011;45222;52.458;20.914;2023-05-07T08:43:59;5.10;;;1.90;;
59416;SDS011;45222;52.458;20.914;2023-05-07T08:47:47;4.10;;;2.00;;
59416;SDS011;45222;52.458;20.914;2023-05-07T08:51:36;3.90;;;2.00;;
59416;SDS011;45222;52.458;20.914;2023-05-07T08:55:21;5.10;;;2.00;;
59416;SDS011;45222;52.458;20.914;2023-05-07T08:59:06;6.00;;;2.20;;
59416;SDS011;45222;52.458;20.914;2023-05-07T09:02:51;4.90;;;2.00;;
59416;SDS011;45222;52.458;20.914;2023-05-07T09:06:37;4.90;;;1.90;;
59416;SDS011;45222;52.458;20.914;2023-05-07T09:10:25;4.70;;;2.10;;
59416;SDS011;45222;52.458;20.914;2023-05-07T09:14:10;6.80;;;2.30;;
59416;SDS011;45222;52.458;20.914;2023-05-07T09:17:57;5.40;;;2.30;;
59416;SDS011;45222;52.458;20.914;2023-05-07T10:06:34;3.40;;;2.00;;
59416;SDS011;45222;52.458;20.914;2023-05-07T10:10:20;5.80;;;2.30;;
59416;SDS011;45222;52.458;20.914;2023-05-07T10:14:07;5.10;;;2.10;;
59416;SDS011;45222;52.458;20.914;2023-05-07T10:17:53;4.00;;;2.10;;
59416;SDS011;45222;52.458;20.914;2023-05-07T10:21:39;4.80;;;1.90;;
59416;SDS011;45222;52.458;20.914;2023-05-07T10:27:22;4.50;;;1.90;;
59416;SDS011;45222;52.458;20.914;2023-05-07T10:31:14;4.50;;;2.10;;
59416;SDS011;45222;52.458;20.914;2023-05-07T10:35:17;4.60;;;2.20;;
59416;SDS011;45222;52.458;20.914;2023-05-07T10:39:06;5.00;;;2.00;;
59416;SDS011;45222;52.458;20.914;2023-05-07T10:42:56;6.10;;;2.00;;
59416;SDS011;45222;52.458;20.914;2023-05-07T10:46:43;6.20;;;2.10;;
59416;SDS011;45222;52.458;20.914;2023-05-07T10:50:49;4.80;;;2.00;;
59416;SDS011;45222;52.458;20.914;2023-05-07T11:03:15;7.30;;;2.00;;
59416;SDS011;45222;52.458;20.914;2023-05-07T11:11:14;4.60;;;2.10;;
59416;SDS011;45222;52.458;20.914;2023-05-07T11:14:59;4.70;;;2.20;;
59416;SDS011;45222;52.458;20.914;2023-05-07T11:18:48;3.30;;;2.00;;
59416;SDS011;45222;52.458;20.914;2023-05-07T11:22:37;6.30;;;2.00;;
59416;SDS011;45222;52.458;20.914;2023-05-07T11:26:24;3.40;;;2.00;;
59416;SDS011;45222;52.458;20.914;2023-05-07T11:30:13;3.10;;;1.80;;
59416;SDS011;45222;52.458;20.914;2023-05-07T11:34:02;5.70;;;2.00;;
59416;SDS011;45222;52.458;20.914;2023-05-07T11:37:47;5.40;;;2.00;;
59416;SDS011;45222;52.458;20.914;2023-05-07T11:41:34;4.60;;;2.20;;
59416;SDS011;45222;52.458;20.914;2023-05-07T11:45:23;5.90;;;2.10;;
59416;SDS011;45222;52.458;20.914;2023-05-07T11:49:09;4.40;;;2.00;;
59416;SDS011;45222;52.458;20.914;2023-05-07T11:52:54;7.30;;;1.90;;
59416;SDS011;45222;52.458;20.914;2023-05-07T11:56:39;3.00;;;1.90;;
59416;SDS011;45222;52.458;20.914;2023-05-07T12:00:24;3.50;;;2.10;;
59416;SDS011;45222;52.458;20.914;2023-05-07T12:04:10;6.60;;;2.00;;
59416;SDS011;45222;52.458;20.914;2023-05-07T12:07:56;4.40;;;2.00;;
59416;SDS011;45222;52.458;20.914;2023-05-07T12:11:41;7.70;;;2.20;;
59416;SDS011;45222;52.458;20.914;2023-05-07T12:19:14;5.50;;;2.10;;
59416;SDS011;45222;52.458;20.914;2023-05-07T12:23:00;3.70;;;2.20;;
59416;SDS011;45222;52.458;20.914;2023-05-07T12:26:46;5.80;;;2.10;;
59416;SDS011;45222;52.458;20.914;2023-05-07T12:30:31;3.50;;;2.00;;
59416;SDS011;45222;52.458;20.914;2023-05-07T12:34:20;4.40;;;2.00;;
59416;SDS011;45222;52.458;20.914;2023-05-07T12:38:08;5.10;;;2.10;;
59416;SDS011;45222;52.458;20.914;2023-05-07T12:41:54;4.30;;;2.10;;
59416;SDS011;45222;52.458;20.914;2023-05-07T12:45:41;3.40;;;1.90;;
59416;SDS011;45222;52.458;20.914;2023-05-07T12:49:27;4.20;;;1.90;;
59416;SDS011;45222;52.458;20.914;2023-05-07T12:53:13;2.90;;;1.80;;
59416;SDS011;45222;52.458;20.914;2023-05-07T12:57:02;4.70;;;1.90;;
59416;SDS011;45222;52.458;20.914;2023-05-07T13:00:48;5.80;;;2.60;;
59416;SDS011;45222;52.458;20.914;2023-05-07T13:04:34;4.20;;;1.90;;
59416;SDS011;45222;52.458;20.914;2023-05-07T13:08:29;6.30;;;2.20;;
59416;SDS011;45222;52.458;20.914;2023-05-07T13:12:16;5.70;;;1.80;;
59416;SDS011;45222;52.458;20.914;2023-05-07T13:16:01;4.50;;;1.90;;
59416;SDS011;45222;52.458;20.914;2023-05-07T13:19:47;4.00;;;2.00;;
59416;SDS011;45222;52.458;20.914;2023-05-07T13:23:33;5.40;;;2.00;;
59416;SDS011;45222;52.458;20.914;2023-05-07T13:27:18;3.40;;;1.80;;
59416;SDS011;45222;52.458;20.914;2023-05-07T13:31:04;3.30;;;1.80;;
59416;SDS011;45222;52.458;20.914;2023-05-07T13:34:49;5.00;;;2.10;;
59416;SDS011;45222;52.458;20.914;2023-05-07T13:38:34;7.30;;;1.80;;
59416;SDS011;45222;52.458;20.914;2023-05-07T13:42:19;4.40;;;1.70;;
59416;SDS011;45222;52.458;20.914;2023-05-07T13:46:04;5.60;;;2.00;;
59416;SDS011;45222;52.458;20.914;2023-05-07T13:49:50;4.10;;;1.80;;
59416;SDS011;45222;52.458;20.914;2023-05-07T13:53:35;4.50;;;1.90;;
59416;SDS011;45222;52.458;20.914;2023-05-07T13:57:20;2.40;;;1.60;;
59416;SDS011;45222;52.458;20.914;2023-05-07T14:01:05;2.70;;;1.70;;
59416;SDS011;45222;52.458;20.914;2023-05-07T14:04:50;5.80;;;1.80;;
59416;SDS011;45222;52.458;20.914;2023-05-07T14:08:35;3.40;;;1.80;;
59416;SDS011;45222;52.458;20.914;2023-05-07T14:12:20;4.20;;;1.60;;
59416;SDS011;45222;52.458;20.914;2023-05-07T14:16:05;2.90;;;1.70;;
59416;SDS011;45222;52.458;20.914;2023-05-07T14:19:51;3.80;;;2.00;;
59416;SDS011;45222;52.458;20.914;2023-05-07T14:23:37;5.00;;;1.70;;
59416;SDS011;45222;52.458;20.914;2023-05-07T14:27:22;3.40;;;1.60;;
59416;SDS011;45222;52.458;20.914;2023-05-07T14:31:07;4.50;;;1.90;;
59416;SDS011;45222;52.458;20.914;2023-05-07T14:34:53;4.20;;;1.80;;
59416;SDS011;45222;52.458;20.914;2023-05-07T14:38:38;2.50;;;1.60;;
59416;SDS011;45222;52.458;20.914;2023-05-07T14:42:23;4.10;;;1.80;;
59416;SDS011;45222;52.458;20.914;2023-05-07T14:46:08;3.20;;;1.50;;
59416;SDS011;45222;52.458;20.914;2023-05-07T14:49:54;3.40;;;1.60;;
59416;SDS011;45222;52.458;20.914;2023-05-07T14:53:41;6.40;;;1.90;;
59416;SDS011;45222;52.458;20.914;2023-05-07T14:57:26;4.60;;;2.00;;
59416;SDS011;45222;52.458;20.914;2023-05-07T15:01:11;4.90;;;1.90;;
59416;SDS011;45222;52.458;20.914;2023-05-07T15:04:57;4.30;;;1.90;;
59416;SDS011;45222;52.458;20.914;2023-05-07T15:08:43;4.80;;;1.90;;
59416;SDS011;45222;52.458;20.914;2023-05-07T15:12:29;5.30;;;1.90;;
59416;SDS011;45222;52.458;20.914;2023-05-07T15:16:14;3.90;;;1.90;;
59416;SDS011;45222;52.458;20.914;2023-05-07T15:19:59;3.50;;;1.80;;
59416;SDS011;45222;52.458;20.914;2023-05-07T15:23:44;4.80;;;1.90;;
59416;SDS011;45222;52.458;20.914;2023-05-07T15:27:29;4.50;;;1.90;;
59416;SDS011;45222;52.458;20.914;2023-05-07T15:31:15;4.30;;;2.10;;
59416;SDS011;45222;52.458;20.914;2023-05-07T15:35:00;4.70;;;1.80;;
59416;SDS011;45222;52.458;20.914;2023-05-07T15:38:46;5.30;;;2.00;;
59416;SDS011;45222;52.458;20.914;2023-05-07T15:42:31;4.30;;;2.10;;
59416;SDS011;45222;52.458;20.914;2023-05-07T15:46:17;5.70;;;2.20;;
59416;SDS011;45222;52.458;20.914;2023-05-07T15:50:04;4.60;;;2.20;;
59416;SDS011;45222;52.458;20.914;2023-05-07T15:53:50;4.20;;;2.10;;
59416;SDS011;45222;52.458;20.914;2023-05-07T15:57:36;3.20;;;2.00;;
59416;SDS011;45222;52.458;20.914;2023-05-07T16:01:21;6.10;;;2.00;;
59416;SDS011;45222;52.458;20.914;2023-05-07T16:05:07;3.70;;;1.80;;
59416;SDS011;45222;52.458;20.914;2023-05-07T16:08:54;5.20;;;1.90;;
59416;SDS011;45222;52.458;20.914;2023-05-07T16:12:39;3.80;;;1.90;;
59416;SDS011;45222;52.458;20.914;2023-05-07T16:16:24;3.40;;;1.90;;
59416;SDS011;45222;52.458;20.914;2023-05-07T16:20:12;5.50;;;2.10;;
59416;SDS011;45222;52.458;20.914;2023-05-07T16:23:59;4.50;;;2.30;;
59416;SDS011;45222;52.458;20.914;2023-05-07T16:27:44;4.00;;;1.90;;
59416;SDS011;45222;52.458;20.914;2023-05-07T16:31:29;4.40;;;2.20;;
59416;SDS011;45222;52.458;20.914;2023-05-07T16:35:14;4.60;;;2.20;;
59416;SDS011;45222;52.458;20.914;2023-05-07T16:38:59;3.30;;;2.00;;
59416;SDS011;45222;52.458;20.914;2023-05-07T16:42:44;4.10;;;2.10;;
59416;SDS011;45222;52.458;20.914;2023-05-07T16:46:30;6.50;;;2.20;;
59416;SDS011;45222;52.458;20.914;2023-05-07T16:50:15;4.60;;;2.00;;
59416;SDS011;45222;52.458;20.914;2023-05-07T16:54:00;3.60;;;2.20;;
59416;SDS011;45222;52.458;20.914;2023-05-07T16:57:46;4.20;;;2.20;;
59416;SDS011;45222;52.458;20.914;2023-05-07T17:01:31;4.90;;;2.20;;
59416;SDS011;45222;52.458;20.914;2023-05-07T17:05:16;4.50;;;2.20;;
59416;SDS011;45222;52.458;20.914;2023-05-07T17:09:02;6.10;;;2.40;;
59416;SDS011;45222;52.458;20.914;2023-05-07T17:12:47;5.60;;;2.30;;
59416;SDS011;45222;52.458;20.914;2023-05-07T17:16:32;5.60;;;2.50;;
59416;SDS011;45222;52.458;20.914;2023-05-07T17:20:17;6.10;;;2.30;;
59416;SDS011;45222;52.458;20.914;2023-05-07T17:24:04;5.30;;;2.30;;
59416;SDS011;45222;52.458;20.914;2023-05-07T17:27:50;4.50;;;2.30;;
59416;SDS011;45222;52.458;20.914;2023-05-07T17:31:36;4.30;;;2.30;;
59416;SDS011;45222;52.458;20.914;2023-05-07T17:35:21;5.70;;;2.30;;
59416;SDS011;45222;52.458;20.914;2023-05-07T17:39:06;6.20;;;2.60;;
59416;SDS011;45222;52.458;20.914;2023-05-07T17:42:57;5.50;;;2.60;;
59416;SDS011;45222;52.458;20.914;2023-05-07T17:46:42;4.80;;;2.60;;
59416;SDS011;45222;52.458;20.914;2023-05-07T17:50:28;7.70;;;2.60;;
59416;SDS011;45222;52.458;20.914;2023-05-07T17:54:13;6.50;;;3.20;;
59416;SDS011;45222;52.458;20.914;2023-05-07T17:57:58;7.50;;;3.10;;
59416;SDS011;45222;52.458;20.914;2023-05-07T18:01:45;6.90;;;2.90;;
59416;SDS011;45222;52.458;20.914;2023-05-07T18:05:34;6.00;;;3.00;;
59416;SDS011;45222;52.458;20.914;2023-05-07T18:13:04;5.40;;;3.00;;
59416;SDS011;45222;52.458;20.914;2023-05-07T18:16:49;8.10;;;3.40;;
59416;SDS011;45222;52.458;20.914;2023-05-07T18:20:34;5.20;;;2.90;;
59416;SDS011;45222;52.458;20.914;2023-05-07T18:24:19;7.40;;;3.10;;
59416;SDS011;45222;52.458;20.914;2023-05-07T18:28:04;8.40;;;3.20;;
59416;SDS011;45222;52.458;20.914;2023-05-07T18:31:50;9.70;;;3.20;;
59416;SDS011;45222;52.458;20.914;2023-05-07T18:35:35;6.20;;;3.20;;
59416;SDS011;45222;52.458;20.914;2023-05-07T18:39:21;8.90;;;3.40;;
59416;SDS011;45222;52.458;20.914;2023-05-07T18:43:06;8.00;;;3.50;;
59416;SDS011;45222;52.458;20.914;2023-05-07T18:46:51;7.20;;;3.40;;
59416;SDS011;45222;52.458;20.914;2023-05-07T18:50:36;7.50;;;3.90;;
59416;SDS011;45222;52.458;20.914;2023-05-07T18:54:25;9.40;;;3.90;;
59416;SDS011;45222;52.458;20.914;2023-05-07T18:58:11;7.30;;;3.80;;
59416;SDS011;45222;52.458;20.914;2023-05-07T19:01:56;8.10;;;3.80;;
59416;SDS011;45222;52.458;20.914;2023-05-07T19:05:41;9.50;;;4.20;;
59416;SDS011;45222;52.458;20.914;2023-05-07T19:09:27;9.50;;;4.50;;
59416;SDS011;45222;52.458;20.914;2023-05-07T19:13:12;12.70;;;5.60;;
59416;SDS011;45222;52.458;20.914;2023-05-07T19:16:57;9.50;;;6.00;;
59416;SDS011;45222;52.458;20.914;2023-05-07T19:20:43;9.80;;;6.40;;
59416;SDS011;45222;52.458;20.914;2023-05-07T19:24:29;10.80;;;6.60;;
59416;SDS011;45222;52.458;20.914;2023-05-07T19:28:15;12.70;;;6.90;;
59416;SDS011;45222;52.458;20.914;2023-05-07T19:32:01;11.00;;;6.30;;
59416;SDS011;45222;52.458;20.914;2023-05-07T19:35:47;11.80;;;6.50;;
59416;SDS011;45222;52.458;20.914;2023-05-07T19:39:32;10.20;;;6.60;;
59416;SDS011;45222;52.458;20.914;2023-05-07T19:43:17;13.80;;;7.50;;
59416;SDS011;45222;52.458;20.914;2023-05-07T19:47:02;12.90;;;7.70;;
59416;SDS011;45222;52.458;20.914;2023-05-07T19:50:50;15.20;;;7.90;;
59416;SDS011;45222;52.458;20.914;2023-05-07T19:54:36;12.70;;;8.00;;
59416;SDS011;45222;52.458;20.914;2023-05-07T19:58:21;15.00;;;9.40;;
59416;SDS011;45222;52.458;20.914;2023-05-07T20:02:06;15.90;;;8.80;;
59416;SDS011;45222;52.458;20.914;2023-05-07T20:05:51;17.70;;;9.00;;
59416;SDS011;45222;52.458;20.914;2023-05-07T20:09:36;15.80;;;8.60;;
59416;SDS011;45222;52.458;20.914;2023-05-07T20:13:22;15.80;;;9.60;;
59416;SDS011;45222;52.458;20.914;2023-05-07T20:17:10;14.90;;;9.10;;
59416;SDS011;45222;52.458;20.914;2023-05-07T20:20:55;16.20;;;9.10;;
59416;SDS011;45222;52.458;20.914;2023-05-07T20:24:40;15.70;;;9.40;;
59416;SDS011;45222;52.458;20.914;2023-05-07T20:28:26;15.20;;;8.60;;
59416;SDS011;45222;52.458;20.914;2023-05-07T20:32:11;14.60;;;8.50;;
59416;SDS011;45222;52.458;20.914;2023-05-07T20:35:57;18.20;;;9.00;;
59416;SDS011;45222;52.458;20.914;2023-05-07T20:39:42;14.60;;;8.40;;
59416;SDS011;45222;52.458;20.914;2023-05-07T20:43:27;14.40;;;9.40;;
59416;SDS011;45222;52.458;20.914;2023-05-07T20:47:13;14.00;;;9.30;;
59416;SDS011;45222;52.458;20.914;2023-05-07T20:50:59;16.10;;;10.20;;
59416;SDS011;45222;52.458;20.914;2023-05-07T20:54:44;16.80;;;11.00;;
59416;SDS011;45222;52.458;20.914;2023-05-07T20:58:32;16.10;;;9.50;;
59416;SDS011;45222;52.458;20.914;2023-05-07T21:02:17;14.80;;;9.00;;
59416;SDS011;45222;52.458;20.914;2023-05-07T21:06:03;15.60;;;9.50;;
59416;SDS011;45222;52.458;20.914;2023-05-07T21:09:48;16.90;;;10.60;;
59416;SDS011;45222;52.458;20.914;2023-05-07T21:13:33;19.90;;;10.70;;
59416;SDS011;45222;52.458;20.914;2023-05-07T21:17:18;18.00;;;11.70;;
59416;SDS011;45222;52.458;20.914;2023-05-07T21:21:06;16.80;;;10.60;;
59416;SDS011;45222;52.458;20.914;2023-05-07T21:24:51;14.90;;;10.10;;
59416;SDS011;45222;52.458;20.914;2023-05-07T21:28:36;19.50;;;10.60;;
59416;SDS011;45222;52.458;20.914;2023-05-07T21:32:22;16.10;;;10.90;;
59416;SDS011;45222;52.458;20.914;2023-05-07T21:36:07;16.40;;;10.70;;
59416;SDS011;45222;52.458;20.914;2023-05-07T21:39:53;18.10;;;11.50;;
59416;SDS011;45222;52.458;20.914;2023-05-07T21:43:38;16.80;;;11.50;;
59416;SDS011;45222;52.458;20.914;2023-05-07T21:47:23;17.50;;;11.30;;
59416;SDS011;45222;52.458;20.914;2023-05-07T21:51:08;18.60;;;11.50;;
59416;SDS011;45222;52.458;20.914;2023-05-07T21:54:54;17.30;;;11.50;;
59416;SDS011;45222;52.458;20.914;2023-05-07T21:58:39;19.90;;;13.50;;
59416;SDS011;45222;52.458;20.914;2023-05-07T22:02:24;22.00;;;13.90;;
59416;SDS011;45222;52.458;20.914;2023-05-07T22:06:09;21.40;;;14.70;;
59416;SDS011;45222;52.458;20.914;2023-05-07T22:09:54;21.10;;;14.50;;
59416;SDS011;45222;52.458;20.914;2023-05-07T22:13:39;20.40;;;13.40;;
59416;SDS011;45222;52.458;20.914;2023-05-07T22:17:25;21.20;;;13.60;;
59416;SDS011;45222;52.458;20.914;2023-05-07T22:21:10;19.60;;;12.80;;
59416;SDS011;45222;52.458;20.914;2023-05-07T22:24:55;20.40;;;14.50;;
59416;SDS011;45222;52.458;20.914;2023-05-07T22:28:40;22.00;;;16.30;;
59416;SDS011;45222;52.458;20.914;2023-05-07T22:32:25;25.30;;;16.70;;
59416;SDS011;45222;52.458;20.914;2023-05-07T22:36:10;26.10;;;17.10;;
59416;SDS011;45222;52.458;20.914;2023-05-07T22:39:56;23.90;;;18.30;;
59416;SDS011;45222;52.458;20.914;2023-05-07T22:43:41;26.90;;;19.60;;
59416;SDS011;45222;52.458;20.914;2023-05-07T22:47:28;26.00;;;19.20;;
59416;SDS011;45222;52.458;20.914;2023-05-07T22:51:13;25.20;;;18.70;;
59416;SDS011;45222;52.458;20.914;2023-05-07T22:54:58;29.20;;;19.80;;
59416;SDS011;45222;52.458;20.914;2023-05-07T22:58:43;30.20;;;20.70;;
59416;SDS011;45222;52.458;20.914;2023-05-07T23:02:29;31.60;;;23.70;;
59416;SDS011;45222;52.458;20.914;2023-05-07T23:06:14;32.10;;;24.60;;
59416;SDS011;45222;52.458;20.914;2023-05-07T23:09:59;32.70;;;24.90;;
59416;SDS011;45222;52.458;20.914;2023-05-07T23:13:44;32.80;;;24.80;;
59416;SDS011;45222;52.458;20.914;2023-05-07T23:17:30;32.10;;;24.30;;
59416;SDS011;45222;52.458;20.914;2023-05-07T23:21:16;29.80;;;21.50;;